createdAt,value
2022-09-26T00:01:45.853Z,13.59
2022-09-26T00:04:22.985Z,13.60
2022-09-26T00:06:53.378Z,13.57
2022-09-26T00:09:24.455Z,13.59
2022-09-26T00:11:55.268Z,13.64
2022-09-26T00:14:27.362Z,13.59
2022-09-26T00:16:57.003Z,13.62
2022-09-26T00:19:27.506Z,13.70
2022-09-26T00:21:57.348Z,13.68
2022-09-26T00:24:25.625Z,13.67
2022-09-26T00:26:54.106Z,13.69
2022-09-26T00:29:22.541Z,13.69
2022-09-26T00:31:51.090Z,13.60
2022-09-26T00:34:22.296Z,13.44
2022-09-26T00:36:53.010Z,13.38
2022-09-26T00:39:21.370Z,13.39
2022-09-26T00:41:49.655Z,13.38
2022-09-26T00:44:41.331Z,13.43
2022-09-26T00:47:30.859Z,13.42
2022-09-26T00:50:04.027Z,13.35
2022-09-26T00:52:38.489Z,13.36
2022-09-26T00:55:11.787Z,13.31
2022-09-26T00:57:46.798Z,13.27
2022-09-26T01:00:16.357Z,13.19
2022-09-26T01:02:46.785Z,13.18
2022-09-26T01:05:18.360Z,13.23
2022-09-26T01:07:49.029Z,13.26
2022-09-26T01:10:19.224Z,13.24
2022-09-26T01:12:48.930Z,13.20
2022-09-26T01:15:18.753Z,13.13
2022-09-26T01:17:48.052Z,13.17
2022-09-26T01:20:28.370Z,13.14
2022-09-26T01:23:39.547Z,13.05
2022-09-26T01:26:41.876Z,13.03
2022-09-26T01:30:04.302Z,13.03
2022-09-26T01:32:58.351Z,13.03
2022-09-26T01:35:42.532Z,13.00
2022-09-26T01:38:21.636Z,12.99
2022-09-26T01:41:03.258Z,12.98
2022-09-26T01:43:37.589Z,12.99
2022-09-26T01:46:13.334Z,12.99
2022-09-26T01:48:48.603Z,12.96
2022-09-26T01:51:21.225Z,12.96
2022-09-26T01:53:56.591Z,12.94
2022-09-26T01:56:28.181Z,12.86
2022-09-26T01:59:01.301Z,12.88
2022-09-26T02:01:32.938Z,12.79
2022-09-26T02:04:10.505Z,12.76
2022-09-26T02:06:43.888Z,12.74
2022-09-26T02:09:18.249Z,12.71
2022-09-26T02:11:52.373Z,12.63
2022-09-26T02:14:27.673Z,12.65
2022-09-26T02:17:02.189Z,12.52
2022-09-26T02:19:38.415Z,12.43
2022-09-26T02:22:07.079Z,12.38
2022-09-26T02:24:35.860Z,12.28
2022-09-26T02:27:04.389Z,12.23
2022-09-26T02:29:32.635Z,12.27
2022-09-26T02:32:05.979Z,12.23
2022-09-26T02:34:36.397Z,12.20
2022-09-26T02:37:06.416Z,12.22
2022-09-26T02:39:35.213Z,12.26
2022-09-26T02:42:15.050Z,12.23
2022-09-26T02:45:08.463Z,12.22
2022-09-26T02:48:00.941Z,12.14
2022-09-26T02:50:48.205Z,11.96
2022-09-26T02:53:35.402Z,11.83
2022-09-26T02:56:14.749Z,11.76
2022-09-26T02:58:48.805Z,11.69
2022-09-26T03:01:26.135Z,11.63
2022-09-26T03:04:01.627Z,11.58
2022-09-26T03:06:38.737Z,11.57
2022-09-26T03:09:09.848Z,11.57
2022-09-26T03:11:38.973Z,11.62
2022-09-26T03:14:09.667Z,11.67
2022-09-26T03:16:45.502Z,11.70
2022-09-26T03:19:22.725Z,11.72
2022-09-26T03:21:52.614Z,11.72
2022-09-26T03:24:22.005Z,11.72
2022-09-26T03:26:52.031Z,11.69
2022-09-26T03:29:21.502Z,11.73
2022-09-26T03:31:50.684Z,11.71
2022-09-26T03:34:19.318Z,11.69
2022-09-26T03:36:48.105Z,11.70
2022-09-26T03:39:17.990Z,11.66
2022-09-26T03:41:47.033Z,11.62
2022-09-26T03:44:16.333Z,11.64
2022-09-26T03:46:44.694Z,11.63
2022-09-26T03:49:13.498Z,11.55
2022-09-26T03:51:43.980Z,11.52
2022-09-26T03:54:13.260Z,11.45
2022-09-26T03:56:43.079Z,11.38
2022-09-26T03:59:11.925Z,11.31
2022-09-26T04:01:41.869Z,11.29
2022-09-26T04:04:10.415Z,11.32
2022-09-26T04:06:39.476Z,11.34
2022-09-26T04:09:16.587Z,11.35
2022-09-26T04:11:47.740Z,11.36
2022-09-26T04:14:16.303Z,11.37
2022-09-26T04:16:46.013Z,11.36
2022-09-26T04:19:15.119Z,11.31
2022-09-26T04:21:43.936Z,11.32
2022-09-26T04:24:16.500Z,11.21
2022-09-26T04:26:46.981Z,11.18
2022-09-26T04:29:16.654Z,11.12
2022-09-26T04:31:45.172Z,11.08
2022-09-26T04:34:15.131Z,11.02
2022-09-26T04:36:43.996Z,10.96
2022-09-26T04:39:13.207Z,10.88
2022-09-26T04:41:42.015Z,10.82
2022-09-26T04:44:13.302Z,10.83
2022-09-26T04:46:41.887Z,10.83
2022-09-26T04:49:11.898Z,10.81
2022-09-26T04:51:40.522Z,10.84
2022-09-26T04:54:09.413Z,10.84
2022-09-26T04:56:37.794Z,10.89
2022-09-26T04:59:10.724Z,10.76
2022-09-26T05:01:40.887Z,10.66
2022-09-26T05:04:10.192Z,10.59
2022-09-26T05:06:39.364Z,10.51
2022-09-26T05:09:08.441Z,10.48
2022-09-26T05:11:36.765Z,10.47
2022-09-26T05:14:05.571Z,10.41
2022-09-26T05:16:33.927Z,10.39
2022-09-26T05:19:04.738Z,10.34
2022-09-26T05:21:33.549Z,10.37
2022-09-26T05:24:19.433Z,10.30
2022-09-26T05:26:50.433Z,10.25
2022-09-26T05:29:20.701Z,10.24
2022-09-26T05:31:49.295Z,10.25
2022-09-26T05:34:20.563Z,10.27
2022-09-26T05:36:48.980Z,10.27
2022-09-26T05:39:43.461Z,10.33
2022-09-26T05:42:11.953Z,10.35
2022-09-26T05:44:44.119Z,10.38
2022-09-26T05:47:13.269Z,10.42
2022-09-26T05:53:12.255Z,10.44
2022-09-26T05:55:40.651Z,10.46
2022-09-26T05:58:10.243Z,10.43
2022-09-26T06:00:39.164Z,10.52
2022-09-26T06:03:07.824Z,10.46
2022-09-26T06:05:38.460Z,10.47
2022-09-26T06:08:07.348Z,10.47
2022-09-26T06:10:35.639Z,10.42
2022-09-26T06:13:05.058Z,10.41
2022-09-26T06:15:33.833Z,10.40
2022-09-26T06:18:05.277Z,10.39
2022-09-26T06:20:34.500Z,10.40
2022-09-26T06:23:05.297Z,10.36
2022-09-26T06:25:33.580Z,10.36
2022-09-26T06:28:03.483Z,10.31
2022-09-26T06:30:33.190Z,10.29
2022-09-26T06:33:02.249Z,10.25
2022-09-26T06:35:34.280Z,10.23
2022-09-26T06:38:05.102Z,10.23
2022-09-26T06:40:33.911Z,10.24
2022-09-26T06:43:02.341Z,10.21
2022-09-26T06:45:32.097Z,10.22
2022-09-26T06:48:03.306Z,10.23
2022-09-26T06:50:32.383Z,10.17
2022-09-26T06:53:12.816Z,10.15
2022-09-26T06:55:42.133Z,10.12
2022-09-26T06:58:12.237Z,10.12
2022-09-26T07:00:42.638Z,10.14
2022-09-26T07:03:13.690Z,10.22
2022-09-26T07:05:42.720Z,10.23
2022-09-26T07:08:32.584Z,10.21
2022-09-26T07:11:50.359Z,10.19
2022-09-26T07:14:08.487Z,10.24
2022-09-26T07:16:36.891Z,10.30
2022-09-26T07:19:05.371Z,10.34
2022-09-26T07:21:48.095Z,10.36
2022-09-26T07:24:25.289Z,10.34
2022-09-26T07:27:03.344Z,10.33
2022-09-26T07:29:39.362Z,10.32
2022-09-26T07:32:07.690Z,10.32
2022-09-26T07:34:36.113Z,10.42
2022-09-26T07:37:04.744Z,10.57
2022-09-26T07:39:35.090Z,10.60
2022-09-26T07:42:03.497Z,10.58
2022-09-26T07:47:38.235Z,10.60
2022-09-26T07:50:15.987Z,10.55
2022-09-26T07:52:45.890Z,10.57
2022-09-26T07:55:18.376Z,10.66
2022-09-26T07:57:48.492Z,10.69
2022-09-26T08:00:19.703Z,10.77
2022-09-26T08:02:49.231Z,10.83
2022-09-26T08:05:21.787Z,11.03
2022-09-26T08:07:51.477Z,11.19
2022-09-26T08:10:24.626Z,11.33
2022-09-26T08:12:54.078Z,11.47
2022-09-26T08:15:23.884Z,11.56
2022-09-26T08:17:52.184Z,11.74
2022-09-26T08:20:21.060Z,11.70
2022-09-26T08:22:49.853Z,11.77
2022-09-26T08:25:18.389Z,11.65
2022-09-26T08:27:48.661Z,11.63
2022-09-26T08:30:18.013Z,11.65
2022-09-26T08:32:54.855Z,11.55
2022-09-26T08:35:23.204Z,11.53
2022-09-26T08:37:52.731Z,11.55
2022-09-26T08:40:28.739Z,11.61
2022-09-26T08:43:07.513Z,11.59
2022-09-26T08:46:01.469Z,11.65
2022-09-26T08:48:43.554Z,11.69
2022-09-26T08:51:28.257Z,11.66
2022-09-26T08:54:05.920Z,11.65
2022-09-26T08:56:38.635Z,11.81
2022-09-26T08:59:15.774Z,11.72
2022-09-26T09:01:46.845Z,11.78
2022-09-26T09:04:19.335Z,11.75
2022-09-26T09:06:51.807Z,11.71
2022-09-26T09:09:20.812Z,11.76
2022-09-26T09:12:04.529Z,11.76
2022-09-26T09:15:02.389Z,11.83
2022-09-26T09:17:45.732Z,11.89
2022-09-26T09:20:19.807Z,11.99
2022-09-26T09:23:12.470Z,12.14
2022-09-26T09:25:48.024Z,12.12
2022-09-26T09:28:32.766Z,12.27
2022-09-26T09:31:05.869Z,12.28
2022-09-26T09:33:39.673Z,12.36
2022-09-26T09:36:12.172Z,12.48
2022-09-26T09:38:44.289Z,12.46
2022-09-26T09:41:16.148Z,12.36
2022-09-26T09:43:48.814Z,12.46
2022-09-26T09:46:26.663Z,12.70
2022-09-26T09:49:00.199Z,12.62
2022-09-26T09:51:40.429Z,12.63
2022-09-26T09:54:31.332Z,12.64
2022-09-26T09:57:22.411Z,12.79
2022-09-26T10:00:10.001Z,12.93
2022-09-26T10:02:47.913Z,13.11
2022-09-26T10:05:25.110Z,13.35
2022-09-26T10:07:58.223Z,13.65
2022-09-26T10:10:37.694Z,13.68
2022-09-26T10:13:09.279Z,13.41
2022-09-26T10:15:41.787Z,13.20
2022-09-26T10:18:26.106Z,13.32
2022-09-26T10:20:59.595Z,13.23
2022-09-26T10:23:32.948Z,12.97
2022-09-26T10:26:06.015Z,12.73
2022-09-26T10:28:38.086Z,13.06
2022-09-26T10:31:10.784Z,13.41
2022-09-26T10:33:47.370Z,13.62
2022-09-26T10:36:21.877Z,13.63
2022-09-26T10:39:11.097Z,13.62
2022-09-26T10:41:45.967Z,13.89
2022-09-26T10:44:26.380Z,13.67
2022-09-26T10:46:58.742Z,13.35
2022-09-26T10:49:36.638Z,13.47
2022-09-26T10:52:14.791Z,13.69
2022-09-26T10:54:57.602Z,13.69
2022-09-26T10:57:30.671Z,13.68
2022-09-26T11:00:01.748Z,13.67
2022-09-26T11:02:30.473Z,13.69
2022-09-26T11:05:19.813Z,13.55
2022-09-26T11:07:49.634Z,13.50
2022-09-26T11:10:25.728Z,13.83
2022-09-26T11:13:00.551Z,14.16
2022-09-26T11:15:30.275Z,14.51
2022-09-26T11:17:59.847Z,14.34
2022-09-26T11:20:42.058Z,14.18
2022-09-26T11:23:31.743Z,14.33
2022-09-26T11:26:15.681Z,14.80
2022-09-26T11:28:49.014Z,14.63
2022-09-26T11:31:26.403Z,14.86
2022-09-26T11:34:04.653Z,14.40
2022-09-26T11:36:57.040Z,14.27
2022-09-26T11:39:41.827Z,14.47
2022-09-26T11:42:26.186Z,14.94
2022-09-26T11:44:58.887Z,14.68
2022-09-26T11:48:13.839Z,14.39
2022-09-26T11:50:56.223Z,14.14
2022-09-26T11:53:44.491Z,14.02
2022-09-26T11:56:26.853Z,14.61
2022-09-26T11:59:06.838Z,14.93
2022-09-26T12:01:44.514Z,15.18
2022-09-26T12:04:41.437Z,15.18
2022-09-26T12:07:18.307Z,14.81
2022-09-26T12:10:04.646Z,14.39
2022-09-26T12:12:43.022Z,14.10
2022-09-26T12:15:23.785Z,13.90
2022-09-26T12:18:08.623Z,13.77
2022-09-26T12:20:43.944Z,14.25
2022-09-26T12:23:21.961Z,14.76
2022-09-26T12:26:05.390Z,14.93
2022-09-26T12:29:06.703Z,15.10
2022-09-26T12:31:49.051Z,15.09
2022-09-26T12:34:32.594Z,15.18
2022-09-26T12:37:15.249Z,15.15
2022-09-26T12:40:00.132Z,15.59
2022-09-26T12:42:48.876Z,15.80
2022-09-26T12:45:42.686Z,15.39
2022-09-26T12:48:31.561Z,15.05
2022-09-26T12:51:20.314Z,14.61
2022-09-26T12:54:11.340Z,14.45
2022-09-26T12:56:49.609Z,14.36
2022-09-26T12:59:37.819Z,14.31
2022-09-26T13:02:34.779Z,14.22
2022-09-26T13:05:31.303Z,13.84
2022-09-26T13:08:09.224Z,13.79
2022-09-26T13:10:52.504Z,14.49
2022-09-26T13:14:06.525Z,15.11
2022-09-26T13:16:45.666Z,15.09
2022-09-26T13:19:23.809Z,15.06
2022-09-26T13:22:00.738Z,15.20
2022-09-26T13:24:42.031Z,14.94
2022-09-26T13:27:17.902Z,15.26
2022-09-26T13:29:51.294Z,15.65
2022-09-26T13:32:28.135Z,15.94
2022-09-26T13:35:04.410Z,15.61
2022-09-26T13:37:43.369Z,15.11
2022-09-26T13:40:28.176Z,14.95
2022-09-26T13:43:11.254Z,15.07
2022-09-26T13:45:56.561Z,15.02
2022-09-26T13:48:38.987Z,15.10
2022-09-26T13:51:19.905Z,15.09
2022-09-26T13:53:58.206Z,14.95
2022-09-26T13:56:44.643Z,14.96
2022-09-26T13:59:36.383Z,14.77
2022-09-26T14:02:24.839Z,14.89
2022-09-26T14:05:16.175Z,14.95
2022-09-26T14:08:09.223Z,15.02
2022-09-26T14:10:55.207Z,14.95
2022-09-26T14:19:17.692Z,14.63
2022-09-26T14:22:02.787Z,14.52
2022-09-26T14:24:38.057Z,14.33
2022-09-26T14:29:49.025Z,14.11
2022-09-26T14:32:19.206Z,14.03
2022-09-26T14:34:55.443Z,13.95
2022-09-26T14:37:33.095Z,13.84
2022-09-26T14:40:24.798Z,13.89
2022-09-26T14:42:57.366Z,13.92
2022-09-26T14:45:28.343Z,13.94
2022-09-26T14:48:08.066Z,14.16
2022-09-26T14:50:46.023Z,14.11
2022-09-26T14:53:23.881Z,14.12
2022-09-26T14:55:59.946Z,14.03
2022-09-26T14:58:34.459Z,14.08
2022-09-26T15:01:06.453Z,14.07
2022-09-26T15:03:36.008Z,13.98
2022-09-26T15:06:08.977Z,13.92
2022-09-26T15:08:39.812Z,13.88
2022-09-26T15:11:08.826Z,13.77
2022-09-26T15:13:39.887Z,13.74
2022-09-26T15:16:20.450Z,13.54
2022-09-26T15:18:54.495Z,13.39
2022-09-26T15:21:34.667Z,13.31
2022-09-26T15:24:24.334Z,13.25
2022-09-26T15:26:53.419Z,13.04
2022-09-26T15:29:22.357Z,12.77
2022-09-26T15:31:51.679Z,12.78
2022-09-26T15:34:24.480Z,12.96
2022-09-26T15:36:57.160Z,13.24
2022-09-26T15:39:45.149Z,13.34
2022-09-26T15:42:48.798Z,13.39
2022-09-26T15:45:30.388Z,13.54
2022-09-26T15:48:01.826Z,13.46
2022-09-26T15:50:41.816Z,13.39
2022-09-26T15:53:22.489Z,13.16
2022-09-26T15:55:59.524Z,13.10
2022-09-26T15:58:35.802Z,13.08
2022-09-26T16:01:06.698Z,12.99
2022-09-26T16:03:49.310Z,12.96
2022-09-26T16:06:30.274Z,13.01
2022-09-26T16:09:08.750Z,13.00
2022-09-26T16:11:47.757Z,13.03
2022-09-26T16:14:31.072Z,13.00
2022-09-26T16:17:23.641Z,13.06
2022-09-26T16:20:37.240Z,13.07
2022-09-26T16:23:29.922Z,12.96
2022-09-26T16:25:59.351Z,13.07
2022-09-26T16:28:52.481Z,13.04
2022-09-26T16:31:40.825Z,13.13
2022-09-26T16:34:26.304Z,13.12
2022-09-26T16:37:17.932Z,13.14
2022-09-26T16:40:19.035Z,13.56
2022-09-26T16:42:48.621Z,13.40
2022-09-26T16:45:30.747Z,13.16
2022-09-26T16:48:37.117Z,13.02
2022-09-26T16:51:25.821Z,13.05
2022-09-26T16:53:57.939Z,13.03
2022-09-26T16:56:29.924Z,13.07
2022-09-26T16:59:00.863Z,13.01
2022-09-26T17:01:49.419Z,12.92
2022-09-26T17:04:23.796Z,12.94
2022-09-26T17:06:53.369Z,12.86
2022-09-26T17:09:24.656Z,12.75
2022-09-26T17:12:05.182Z,12.81
2022-09-26T17:14:47.135Z,12.79
2022-09-26T17:17:24.034Z,12.68
2022-09-26T17:20:04.763Z,12.74
2022-09-26T17:22:35.180Z,12.72
2022-09-26T17:25:07.116Z,12.71
2022-09-26T17:27:38.370Z,12.65
2022-09-26T17:30:19.336Z,12.66
2022-09-26T17:32:54.710Z,12.70
2022-09-26T17:35:29.379Z,12.68
2022-09-26T17:37:58.477Z,12.59
2022-09-26T17:40:33.317Z,12.61
2022-09-26T17:43:10.575Z,12.52
2022-09-26T17:45:46.966Z,12.48
2022-09-26T17:48:25.742Z,12.42
2022-09-26T17:50:56.530Z,12.40
2022-09-26T17:53:32.644Z,12.31
2022-09-26T17:56:06.149Z,12.28
2022-09-26T17:58:37.018Z,12.32
2022-09-26T18:01:22.639Z,12.21
2022-09-26T18:04:12.914Z,12.14
2022-09-26T18:06:43.132Z,12.11
2022-09-26T18:09:16.954Z,12.09
2022-09-26T18:11:52.449Z,12.11
2022-09-26T18:14:21.023Z,12.10
2022-09-26T18:16:49.764Z,12.06
2022-09-26T18:19:21.320Z,12.06
2022-09-26T18:21:55.348Z,12.04
2022-09-26T18:24:27.135Z,12.08
2022-09-26T18:27:03.454Z,12.00
2022-09-26T18:29:35.966Z,11.97
2022-09-26T18:32:13.270Z,11.94
2022-09-26T18:34:44.867Z,11.92
2022-09-26T18:37:13.602Z,11.90
2022-09-26T18:39:43.389Z,11.87
2022-09-26T18:42:22.884Z,11.86
2022-09-26T18:45:00.278Z,11.83
2022-09-26T18:47:28.816Z,11.86
2022-09-26T18:50:08.615Z,11.75
2022-09-26T18:52:37.536Z,11.70
2022-09-26T18:55:38.596Z,11.66
2022-09-26T18:58:25.402Z,11.68
2022-09-26T19:01:05.811Z,11.58
2022-09-26T19:03:38.186Z,11.53
2022-09-26T19:06:14.261Z,11.52
2022-09-26T19:08:46.896Z,11.52
2022-09-26T19:11:18.612Z,11.56
2022-09-26T19:13:49.949Z,11.55
2022-09-26T19:16:19.818Z,11.60
2022-09-26T19:18:49.556Z,11.58
2022-09-26T19:21:30.998Z,11.58
2022-09-26T19:24:03.213Z,11.65
2022-09-26T19:26:36.482Z,11.64
2022-09-26T19:29:11.975Z,11.61
2022-09-26T19:31:42.637Z,11.67
2022-09-26T19:34:16.064Z,11.64
2022-09-26T19:36:47.968Z,11.65
2022-09-26T19:39:17.350Z,11.61
2022-09-26T19:41:58.439Z,11.43
2022-09-26T19:44:31.481Z,11.36
2022-09-26T19:47:02.232Z,11.30
2022-09-26T19:49:33.220Z,11.20
2022-09-26T19:52:05.431Z,11.16
2022-09-26T19:54:38.063Z,11.13
2022-09-26T19:57:19.170Z,11.10
2022-09-26T19:59:50.886Z,11.03
2022-09-26T20:02:32.703Z,10.95
2022-09-26T20:05:01.411Z,10.92
2022-09-26T20:07:31.327Z,10.85
2022-09-26T20:09:59.790Z,10.77
2022-09-26T20:12:41.980Z,10.76
2022-09-26T20:15:13.124Z,10.70
2022-09-26T20:17:44.912Z,10.63
2022-09-26T20:20:18.490Z,10.63
2022-09-26T20:22:51.905Z,10.67
2022-09-26T20:25:27.143Z,10.75
2022-09-26T20:27:56.920Z,10.80
2022-09-26T20:30:44.488Z,10.81
2022-09-26T20:33:13.898Z,10.84
2022-09-26T20:35:45.991Z,10.85
2022-09-26T20:38:22.048Z,10.87
2022-09-26T20:40:54.438Z,10.92
2022-09-26T20:43:32.940Z,10.89
2022-09-26T20:46:05.889Z,10.83
2022-09-26T20:48:37.116Z,10.77
2022-09-26T20:51:07.448Z,10.74
2022-09-26T20:53:39.310Z,10.71
2022-09-26T20:56:17.097Z,10.66
2022-09-26T20:58:48.735Z,10.63
2022-09-26T21:01:24.117Z,10.64
2022-09-26T21:03:56.174Z,10.66
2022-09-26T21:06:28.101Z,10.63
2022-09-26T21:08:59.550Z,10.51
2022-09-26T21:11:30.557Z,10.51
2022-09-26T21:14:00.547Z,10.46
2022-09-26T21:16:30.307Z,10.47
2022-09-26T21:18:58.919Z,10.45
2022-09-26T21:21:31.134Z,10.42
2022-09-26T21:24:03.247Z,10.40
2022-09-26T21:26:34.253Z,10.39
2022-09-26T21:29:06.111Z,10.40
2022-09-26T21:31:37.103Z,10.39
2022-09-26T21:34:13.037Z,10.39
2022-09-26T21:36:42.565Z,10.37
2022-09-26T21:39:15.160Z,10.47
2022-09-26T21:41:44.522Z,10.41
2022-09-26T21:44:18.914Z,10.40
2022-09-26T21:46:49.928Z,10.39
2022-09-26T21:49:19.531Z,10.40
2022-09-26T21:51:52.372Z,10.40
2022-09-26T21:54:26.828Z,10.42
2022-09-26T21:57:06.033Z,10.43
2022-09-26T21:59:35.145Z,10.48
2022-09-26T22:02:06.086Z,10.50
2022-09-26T22:04:35.872Z,10.54
2022-09-26T22:07:05.304Z,10.55
2022-09-26T22:09:35.995Z,10.53
2022-09-26T22:12:04.602Z,10.51
2022-09-26T22:14:34.079Z,10.45
2022-09-26T22:17:03.655Z,10.45
2022-09-26T22:19:33.611Z,10.50
2022-09-26T22:22:02.638Z,10.48
2022-09-26T22:24:33.218Z,10.49
2022-09-26T22:27:03.560Z,10.47
2022-09-26T22:29:33.043Z,10.45
2022-09-26T22:32:01.809Z,10.42
2022-09-26T22:34:33.429Z,10.51
2022-09-26T22:37:01.878Z,10.46
2022-09-26T22:39:40.371Z,10.47
2022-09-26T22:42:11.944Z,10.49
2022-09-26T22:44:41.600Z,10.51
2022-09-26T22:47:11.596Z,10.43
2022-09-26T22:49:39.946Z,10.46
2022-09-26T22:52:08.432Z,10.42
2022-09-26T22:54:36.879Z,10.37
2022-09-26T22:57:05.528Z,10.30
2022-09-26T22:59:39.554Z,10.30
2022-09-26T23:02:15.599Z,10.25
2022-09-26T23:04:50.279Z,10.21
2022-09-26T23:07:20.566Z,10.15
2022-09-26T23:09:57.844Z,10.11
2022-09-26T23:12:32.742Z,10.09
2022-09-26T23:15:03.184Z,10.01
2022-09-26T23:17:33.161Z,9.96
2022-09-26T23:20:01.513Z,9.95
2022-09-26T23:22:30.519Z,9.95
2022-09-26T23:24:59.292Z,9.91
2022-09-26T23:27:28.069Z,9.92
2022-09-26T23:29:57.596Z,10.02
2022-09-26T23:32:29.398Z,10.03
2022-09-26T23:34:59.925Z,10.01
2022-09-26T23:37:28.838Z,10.06
2022-09-26T23:39:58.273Z,10.02
2022-09-26T23:42:27.070Z,10.08
2022-09-26T23:44:56.594Z,10.08
2022-09-26T23:47:25.639Z,10.22
2022-09-26T23:49:56.645Z,10.21
2022-09-26T23:52:26.377Z,10.24
2022-09-26T23:54:54.789Z,10.27
2022-09-26T23:57:25.593Z,10.24
2022-09-26T23:59:54.242Z,10.26
